Terminal Aerodrome Forecast
Issued by NWS Caribou, ME

Home | Current Version | Previous Version | Text Only | Print | Product List | Glossary On
Versions: 1 2 3 4 5 6 7 8 9 10 11 12 13 14 15 16 17 18 19 20 21 22 23 24 25 26 27 28
141
FTUS41 KCAR 262337
TAFCAR
TAF
KCAR 262337Z 2700/2724 14005KT 3SM -RA BR OVC003
     FM270200 14005KT 5SM BR VCSH OVC003
     FM270600 14004KT 1/2SM FG OVC003
     FM271300 12004KT 2SM BR OVC002
     FM271700 14005KT 5SM BR OVC010=

USA.gov is the U.S. government's official web portal to all federal, state and local government web resources and services.